Valley Cottage, New York
Current Conditions -  °F | °C
As of 10:56 PM on Monday 22 Dec 2014 (Local Time) from KHPN Reporting Station
Light Rain Light Rain  
Wind Chill: 37°   Ceiling: 700
Heat Index: 43°   Visibility: 2mi
Dew Point: 41°   Wind: 10mph
Humidity: 93%   Direction: 100°E
Pressure: 30.19"   Gusts: NA
Location:  41.11°N, 73.96°W
Report Text: KHPN 230356Z 10009KT 2SM -RA BR OVC007 06/05 A3019 RMK AO2 RAB20 CIG 004V010 SLP228 P0002 T00610050
Loading
Personal Weather Stations






























Interactive Weather Map New forecast layout! Learn more

10-Day Weather Forecast

Advertisements
Track Severe Weather on mobile